Terminal Aerodrome Forecast
Issued by NWS Blacksburg, VA

Current Version | Previous Version | Text Only | Print | Product List | Glossary Off
Versions: 1 2 3 4 5 6 7 8 9 10 11 12 13 14 15 16 17 18

000
FTUS41 KRNK 280520
TAFBLF
TAF
KBLF 280520Z 2806/2906 25006KT P6SM VCSH SCT035 BKN080
     FM280800 24004KT P6SM OVC025
     FM281200 VRB03KT P6SM VCSH OVC015
     FM281500 25007KT P6SM VCTS OVC035CB
     FM290000 28006KT P6SM VCSH OVC015=

USA.gov is the U.S. government's official web portal to all federal, state and local government web resources and services.